Time;durP1;ratioP1;P1;durP2;ratioP2;P2;SDS_P1;SDS_P2;PMS_P1;PMS_P2;Temp;Humidity;BMP_temperature;BMP_pressure;BME280_temperature;BME280_humidity;BME280_pressure;Samples;Min_cycle;Max_cycle;Signal;HPM_P1;HPM_P2
2022/04/13 00:01:24;;;;;;;4.80;3.20;;;9.50;64.60;;;;;;5009516;28;20227;-85
2022/04/13 00:03:52;;;;;;;5.17;2.93;;;9.50;64.60;;;;;;4989837;28;20266;-85
2022/04/13 00:06:19;;;;;;;5.43;3.00;;;9.50;64.70;;;;;;5008114;28;20395;-85
2022/04/13 00:08:45;;;;;;;4.47;3.20;;;9.50;64.60;;;;;;5001147;28;20309;-86
2022/04/13 00:11:13;;;;;;;4.83;2.73;;;9.50;64.80;;;;;;4990010;28;20228;-85
2022/04/13 00:13:41;;;;;;;5.37;3.43;;;9.50;65.10;;;;;;5006775;28;20234;-85
2022/04/13 00:16:08;;;;;;;5.03;3.40;;;9.40;65.00;;;;;;5006896;28;20290;-86
2022/04/13 00:18:35;;;;;;;5.67;3.40;;;9.40;65.00;;;;;;5008475;28;20230;-87
2022/04/13 00:21:03;;;;;;;3.77;2.83;;;9.50;65.10;;;;;;5000283;28;20233;-85
2022/04/13 00:23:30;;;;;;;4.70;3.33;;;9.40;65.10;;;;;;5001835;28;20257;-85
2022/04/13 00:25:58;;;;;;;5.30;3.07;;;9.40;65.00;;;;;;5003493;28;20283;-85
2022/04/13 00:28:25;;;;;;;4.70;3.30;;;9.40;65.30;;;;;;4985109;28;20233;-86
2022/04/13 00:30:52;;;;;;;4.97;3.00;;;9.40;65.30;;;;;;5005618;28;20231;-85
2022/04/13 00:33:19;;;;;;;4.53;3.10;;;9.40;65.30;;;;;;4988893;28;20221;-85
2022/04/13 00:35:45;;;;;;;6.80;3.63;;;9.30;65.40;;;;;;4991303;28;20235;-84
2022/04/13 00:38:13;;;;;;;5.40;3.50;;;9.40;65.60;;;;;;4987753;28;20247;-85
2022/04/13 00:40:40;;;;;;;4.73;3.00;;;9.30;65.80;;;;;;4981652;28;20548;-84
2022/04/13 00:43:07;;;;;;;9.27;3.17;;;9.30;65.70;;;;;;5006880;28;20249;-84
2022/04/13 00:45:34;;;;;;;6.60;3.40;;;9.40;65.70;;;;;;5002313;28;20342;-84
2022/04/13 00:48:02;;;;;;;4.77;3.33;;;9.30;65.80;;;;;;5002258;28;20255;-84
2022/04/13 00:50:29;;;;;;;4.97;3.63;;;9.30;66.00;;;;;;5005138;28;20237;-83
2022/04/13 00:52:58;;;;;;;5.60;3.63;;;9.30;66.00;;;;;;4986932;28;20426;-83
2022/04/13 00:55:27;;;;;;;6.60;3.47;;;9.30;66.10;;;;;;4986514;28;20316;-86
2022/04/13 00:57:57;;;;;;;5.67;3.70;;;9.30;66.10;;;;;;5008681;28;20225;-85
2022/04/13 01:00:24;;;;;;;5.93;3.70;;;9.20;66.30;;;;;;5009679;28;20776;-86
2022/04/13 01:02:53;;;;;;;7.40;4.13;;;9.30;66.30;;;;;;5013421;28;20956;-87
2022/04/13 01:05:22;;;;;;;5.27;3.70;;;9.20;67.20;;;;;;5007737;28;20300;-85
2022/04/13 01:07:50;;;;;;;8.13;4.00;;;9.20;66.60;;;;;;5013898;28;20237;-85
2022/04/13 01:10:18;;;;;;;5.17;3.63;;;9.20;66.30;;;;;;5012573;28;20351;-85
2022/04/13 01:12:47;;;;;;;5.57;3.87;;;9.20;66.30;;;;;;4994414;28;20225;-84
2022/04/13 01:15:13;;;;;;;6.10;4.07;;;9.20;66.40;;;;;;5010581;28;20349;-85
2022/04/13 01:17:40;;;;;;;7.17;4.27;;;9.10;66.90;;;;;;4997288;28;20311;-84
2022/04/13 01:20:10;;;;;;;5.57;4.07;;;9.20;66.70;;;;;;5013329;28;20225;-84
2022/04/13 01:22:38;;;;;;;6.17;3.80;;;9.20;67.00;;;;;;5013317;28;20234;-85
2022/04/13 01:25:06;;;;;;;6.97;4.30;;;9.10;67.00;;;;;;4998883;28;20344;-85
2022/04/13 01:27:33;;;;;;;6.10;4.00;;;9.10;66.90;;;;;;4999784;28;20237;-84
2022/04/13 01:29:59;;;;;;;5.67;4.27;;;9.20;67.00;;;;;;5013933;28;20299;-85
2022/04/13 01:32:26;;;;;;;6.63;4.13;;;9.10;67.30;;;;;;5010146;28;20239;-84
2022/04/13 01:34:54;;;;;;;5.23;3.87;;;9.10;66.90;;;;;;5011999;28;20662;-85
2022/04/13 01:37:22;;;;;;;9.30;4.37;;;9.10;67.10;;;;;;5015444;28;20235;-85
2022/04/13 01:39:51;;;;;;;7.40;4.13;;;9.10;67.30;;;;;;5008955;28;20229;-85
2022/04/13 01:42:17;;;;;;;4.60;3.60;;;9.10;67.50;;;;;;5009480;28;20276;-85
2022/04/13 01:44:44;;;;;;;5.13;3.47;;;9.10;67.30;;;;;;5015289;28;20600;-85
2022/04/13 01:47:11;;;;;;;7.13;3.87;;;9.10;67.30;;;;;;5011783;28;20577;-84
2022/04/13 01:49:38;;;;;;;4.90;3.50;;;9.10;67.70;;;;;;4994949;28;20233;-85
2022/04/13 01:52:06;;;;;;;6.10;3.70;;;9.10;67.50;;;;;;4992967;28;20232;-85
2022/04/13 01:54:33;;;;;;;4.87;3.53;;;9.10;67.40;;;;;;4991332;28;20225;-85
2022/04/13 01:57:02;;;;;;;5.60;3.87;;;9.10;67.40;;;;;;5012788;28;20286;-84
2022/04/13 01:59:29;;;;;;;5.17;3.90;;;9.10;68.20;;;;;;5011153;28;20245;-85
2022/04/13 02:01:57;;;;;;;5.50;3.90;;;9.00;68.20;;;;;;5013188;28;20221;-86
2022/04/13 02:04:25;;;;;;;6.47;3.63;;;9.00;68.00;;;;;;4992119;28;20229;-85
2022/04/13 02:06:53;;;;;;;8.23;3.90;;;9.00;68.10;;;;;;5012133;28;20324;-87
2022/04/13 02:09:20;;;;;;;7.37;4.20;;;9.00;68.30;;;;;;4992779;28;20241;-85
2022/04/13 02:11:48;;;;;;;6.30;3.93;;;9.00;68.20;;;;;;5012398;28;20239;-86
2022/04/13 02:14:16;;;;;;;4.57;3.40;;;9.00;68.40;;;;;;5013660;28;20228;-84
2022/04/13 02:16:43;;;;;;;4.83;3.53;;;8.90;68.90;;;;;;5012071;28;20235;-81
2022/04/13 02:19:11;;;;;;;5.13;3.50;;;8.90;68.50;;;;;;5010167;28;20221;-82
2022/04/13 02:21:38;;;;;;;4.57;3.20;;;8.90;68.50;;;;;;5013830;28;20224;-81
2022/04/13 02:24:07;;;;;;;6.93;3.87;;;8.90;68.50;;;;;;4988483;28;20781;-83
2022/04/13 02:26:33;;;;;;;6.33;3.70;;;8.80;68.90;;;;;;4993039;28;20229;-82
2022/04/13 02:29:00;;;;;;;5.73;3.73;;;8.80;68.90;;;;;;5012673;28;20256;-82
2022/04/13 02:31:28;;;;;;;6.33;4.10;;;8.80;68.90;;;;;;5010961;28;20229;-84
2022/04/13 02:33:56;;;;;;;6.67;3.70;;;8.80;69.40;;;;;;5011431;28;20248;-83
2022/04/13 02:36:23;;;;;;;7.07;3.60;;;8.70;69.30;;;;;;4989411;28;20217;-83
2022/04/13 02:38:50;;;;;;;5.30;3.83;;;8.70;69.20;;;;;;5008709;28;20691;-83
2022/04/13 02:41:17;;;;;;;6.07;3.77;;;8.60;70.00;;;;;;5010353;28;20228;-84
2022/04/13 02:43:43;;;;;;;5.60;3.50;;;8.60;69.60;;;;;;5008269;28;20244;-84
2022/04/13 02:46:10;;;;;;;5.53;4.30;;;8.60;69.90;;;;;;5009415;28;20235;-84
2022/04/13 02:48:38;;;;;;;7.33;4.23;;;8.60;69.80;;;;;;5007061;28;20248;-85
2022/04/13 02:51:05;;;;;;;6.43;3.93;;;8.50;70.00;;;;;;5004412;28;21013;-84
2022/04/13 02:53:32;;;;;;;5.37;3.57;;;8.50;70.40;;;;;;5007960;28;20233;-86
2022/04/13 02:55:59;;;;;;;6.20;4.00;;;8.50;70.10;;;;;;5012968;28;20319;-84
2022/04/13 02:58:26;;;;;;;6.63;3.93;;;8.40;70.40;;;;;;4992991;28;20239;-84
2022/04/13 03:00:54;;;;;;;4.93;3.80;;;8.40;70.70;;;;;;5009600;28;20260;-84
2022/04/13 03:03:21;;;;;;;5.10;3.73;;;8.40;71.00;;;;;;5006317;28;20241;-85
2022/04/13 03:05:49;;;;;;;5.83;4.00;;;8.40;71.10;;;;;;4990251;28;20243;-85
2022/04/13 03:08:16;;;;;;;6.03;4.00;;;8.40;70.90;;;;;;4990886;28;20924;-85
2022/04/13 03:10:43;;;;;;;5.93;4.03;;;8.40;70.80;;;;;;4992615;28;20249;-87
2022/04/13 03:13:11;;;;;;;6.57;3.90;;;8.50;70.80;;;;;;5009963;28;20225;-87
2022/04/13 03:15:38;;;;;;;6.40;3.93;;;8.50;70.80;;;;;;5011346;28;20240;-84
2022/04/13 03:18:05;;;;;;;5.03;3.97;;;8.50;71.00;;;;;;5011677;28;20233;-86
2022/04/13 03:20:32;;;;;;;7.27;4.30;;;8.50;71.00;;;;;;4996430;28;20232;-85
2022/04/13 03:23:01;;;;;;;7.50;4.47;;;8.60;71.10;;;;;;5007751;28;20233;-84
2022/04/13 03:25:28;;;;;;;5.73;3.83;;;8.60;71.00;;;;;;5008964;28;20237;-85
2022/04/13 03:27:55;;;;;;;6.23;4.07;;;8.60;71.10;;;;;;5012870;28;20225;-83
2022/04/13 03:30:23;;;;;;;6.17;4.23;;;8.60;71.00;;;;;;5007633;28;20300;-86
2022/04/13 03:32:51;;;;;;;4.23;3.30;;;8.60;71.10;;;;;;5011254;28;21107;-84
2022/04/13 03:35:18;;;;;;;6.23;3.80;;;8.60;71.10;;;;;;4989791;28;20261;-84
2022/04/13 03:37:47;;;;;;;7.33;4.30;;;8.60;71.20;;;;;;4995372;28;20247;-85
2022/04/13 03:40:15;;;;;;;5.70;4.10;;;8.60;72.10;;;;;;5003439;28;20233;-84
2022/04/13 03:42:43;;;;;;;7.13;4.03;;;8.60;71.10;;;;;;5007216;28;20239;-85
2022/04/13 03:45:12;;;;;;;7.37;4.60;;;8.60;71.10;;;;;;4983472;28;20225;-84
2022/04/13 03:47:39;;;;;;;6.10;4.20;;;8.60;71.50;;;;;;4992138;28;20225;-85
2022/04/13 03:50:07;;;;;;;8.57;4.10;;;8.60;71.40;;;;;;4988781;28;20236;-83
2022/04/13 03:52:34;;;;;;;5.43;3.90;;;8.60;71.60;;;;;;5008987;28;20642;-83
2022/04/13 03:55:01;;;;;;;5.43;4.00;;;8.60;71.60;;;;;;4988507;28;20229;-83
2022/04/13 03:57:29;;;;;;;6.93;4.40;;;8.50;71.80;;;;;;5007341;28;20255;-84
2022/04/13 03:59:56;;;;;;;7.60;4.73;;;8.50;71.80;;;;;;5008119;28;20642;-84
2022/04/13 04:02:23;;;;;;;5.30;4.00;;;8.50;71.80;;;;;;4989257;28;20229;-83
2022/04/13 04:04:50;;;;;;;8.17;4.07;;;8.50;71.90;;;;;;5010404;28;20248;-85
2022/04/13 04:07:17;;;;;;;7.23;4.17;;;8.50;72.00;;;;;;5006846;28;20224;-83
2022/04/13 04:09:44;;;;;;;8.23;4.23;;;8.50;72.10;;;;;;4992912;28;20235;-84
2022/04/13 04:12:11;;;;;;;7.50;4.53;;;8.50;72.50;;;;;;5005056;28;20225;-85
2022/04/13 04:14:39;;;;;;;6.47;4.47;;;8.50;72.30;;;;;;4989547;28;20232;-83
2022/04/13 04:17:06;;;;;;;6.00;4.00;;;8.40;72.40;;;;;;5006636;28;20225;-84
2022/04/13 04:19:34;;;;;;;8.00;4.67;;;8.40;72.30;;;;;;5007178;28;20338;-84
2022/04/13 04:22:01;;;;;;;7.37;4.40;;;8.50;72.40;;;;;;5006487;28;20570;-84
2022/04/13 04:24:27;;;;;;;6.53;4.50;;;8.40;72.50;;;;;;4983208;28;20241;-84
2022/04/13 04:26:54;;;;;;;8.17;5.00;;;8.40;72.60;;;;;;4989134;28;20221;-84
2022/04/13 04:29:22;;;;;;;7.17;4.40;;;8.40;72.70;;;;;;4994742;28;20232;-85
2022/04/13 04:31:53;;;;;;;8.73;4.60;;;8.40;72.80;;;;;;4988484;28;20233;-84
2022/04/13 04:34:22;;;;;;;7.87;4.80;;;8.40;72.90;;;;;;4986016;28;20264;-85
2022/04/13 04:36:48;;;;;;;9.40;5.27;;;8.40;73.30;;;;;;5009264;28;20224;-84
2022/04/13 04:39:15;;;;;;;9.17;4.80;;;8.40;73.00;;;;;;5009726;28;20226;-85
2022/04/13 04:41:42;;;;;;;8.97;4.70;;;8.40;73.50;;;;;;5012450;28;20709;-84
2022/04/13 04:44:10;;;;;;;6.90;4.20;;;8.30;73.60;;;;;;4990620;28;20228;-85
2022/04/13 04:46:37;;;;;;;8.07;4.33;;;8.30;73.70;;;;;;4994219;28;20228;-85
2022/04/13 04:49:06;;;;;;;6.10;4.53;;;8.30;73.60;;;;;;4993902;28;20324;-85
2022/04/13 04:51:33;;;;;;;7.63;4.73;;;8.30;74.10;;;;;;5008504;28;20642;-85
2022/04/13 04:54:00;;;;;;;9.40;4.87;;;8.30;74.10;;;;;;4985194;28;20743;-85
2022/04/13 04:56:28;;;;;;;7.23;4.93;;;8.30;74.50;;;;;;4990535;28;20333;-84
2022/04/13 04:58:55;;;;;;;8.73;5.13;;;8.30;74.30;;;;;;5010232;28;20243;-83
2022/04/13 05:01:22;;;;;;;5.57;4.50;;;8.30;74.40;;;;;;4988735;28;20279;-83
2022/04/13 05:03:49;;;;;;;6.50;4.17;;;8.30;74.60;;;;;;5011377;28;21251;-84
2022/04/13 05:06:20;;;;;;;6.83;4.73;;;8.30;74.60;;;;;;4992282;28;20231;-84
2022/04/13 05:08:47;;;;;;;6.17;4.30;;;8.30;74.70;;;;;;4993643;28;20256;-85
2022/04/13 05:11:14;;;;;;;5.77;4.63;;;8.30;74.40;;;;;;5004863;28;20307;-84
2022/04/13 05:13:40;;;;;;;8.17;4.60;;;8.30;74.70;;;;;;4991066;28;20587;-84
2022/04/13 05:16:07;;;;;;;10.23;4.93;;;8.40;74.80;;;;;;4991334;28;20244;-84
2022/04/13 05:18:34;;;;;;;7.13;4.83;;;8.40;74.70;;;;;;4991990;28;20248;-80
2022/04/13 05:21:01;;;;;;;8.17;5.10;;;8.40;75.00;;;;;;4995767;28;20229;-81
2022/04/13 05:23:29;;;;;;;6.77;4.80;;;8.40;74.90;;;;;;4995364;28;20597;-80
2022/04/13 05:25:55;;;;;;;7.70;5.13;;;8.40;75.20;;;;;;5013581;28;20227;-82
2022/04/13 05:28:22;;;;;;;10.33;4.97;;;8.40;75.00;;;;;;4995560;28;20269;-81
2022/04/13 05:30:49;;;;;;;6.60;5.00;;;8.40;75.10;;;;;;5012829;28;20672;-81
2022/04/13 05:33:16;;;;;;;7.27;5.10;;;8.40;75.30;;;;;;5012653;28;20239;-80
2022/04/13 05:35:45;;;;;;;6.97;4.67;;;8.50;75.30;;;;;;5014295;28;20741;-80
2022/04/13 05:38:12;;;;;;;7.27;4.70;;;8.50;75.40;;;;;;5011812;28;20229;-80
2022/04/13 05:40:40;;;;;;;7.53;5.23;;;8.50;75.30;;;;;;4994191;28;20240;-82
2022/04/13 05:43:07;;;;;;;7.77;5.30;;;8.50;75.40;;;;;;4995459;28;20228;-80
2022/04/13 05:45:34;;;;;;;7.17;5.23;;;8.60;75.30;;;;;;5012327;28;20294;-81
2022/04/13 05:48:00;;;;;;;7.13;4.93;;;8.60;75.30;;;;;;5013324;28;20253;-81
2022/04/13 05:50:27;;;;;;;6.67;5.07;;;8.60;75.40;;;;;;5011995;28;20262;-82
2022/04/13 05:52:54;;;;;;;8.10;5.70;;;8.70;75.30;;;;;;5012302;28;20285;-82
2022/04/13 05:55:21;;;;;;;8.50;5.27;;;8.70;75.50;;;;;;5011259;28;20240;-83
2022/04/13 05:57:49;;;;;;;9.43;5.33;;;8.80;75.50;;;;;;5008609;28;20236;-81
2022/04/13 06:00:16;;;;;;;7.40;5.40;;;8.90;75.50;;;;;;4990630;28;20283;-86
2022/04/13 06:02:43;;;;;;;8.43;5.20;;;8.90;75.30;;;;;;4990362;28;20319;-81
2022/04/13 06:05:11;;;;;;;7.77;5.37;;;9.00;75.40;;;;;;5004819;28;20299;-82
2022/04/13 06:07:38;;;;;;;8.03;5.63;;;9.00;75.60;;;;;;5007839;28;20251;-82
2022/04/13 06:10:05;;;;;;;8.07;5.30;;;9.10;75.50;;;;;;5005333;28;20318;-83
2022/04/13 06:12:33;;;;;;;8.83;5.00;;;9.10;75.30;;;;;;5006095;28;20230;-86
2022/04/13 06:15:09;;;;;;;6.73;5.13;;;9.20;75.50;;;;;;4989115;28;20283;-84
2022/04/13 06:17:37;;;;;;;9.57;4.80;;;9.20;75.60;;;;;;5003885;28;20260;-82
2022/04/13 06:20:05;;;;;;;6.80;5.43;;;9.30;75.30;;;;;;5007066;28;20241;-82
2022/04/13 06:22:33;;;;;;;6.73;5.20;;;9.40;75.30;;;;;;5007380;28;20238;-87
2022/04/13 06:25:02;;;;;;;8.03;5.50;;;9.40;75.30;;;;;;5005181;28;20233;-83
2022/04/13 06:27:29;;;;;;;9.23;5.57;;;9.50;75.20;;;;;;5007264;28;20225;-82
2022/04/13 06:29:56;;;;;;;8.13;4.90;;;9.50;74.80;;;;;;5007625;28;20315;-85
2022/04/13 06:32:32;;;;;;;8.00;5.53;;;9.50;74.80;;;;;;4989689;28;20240;-82
2022/04/13 06:34:59;;;;;;;8.63;5.63;;;9.60;74.60;;;;;;5003157;28;20296;-81
2022/04/13 06:37:26;;;;;;;7.93;5.63;;;9.60;74.90;;;;;;5006149;28;20311;-83
2022/04/13 06:39:53;;;;;;;7.37;5.40;;;9.70;74.80;;;;;;5001721;28;20284;-82
2022/04/13 06:42:21;;;;;;;9.20;5.53;;;9.70;74.60;;;;;;5005666;28;20757;-82
2022/04/13 06:44:48;;;;;;;9.03;5.93;;;9.80;74.70;;;;;;5004307;28;20229;-82
2022/04/13 06:47:15;;;;;;;7.37;5.63;;;9.90;74.80;;;;;;5007353;28;20232;-82
2022/04/13 06:49:43;;;;;;;8.97;5.67;;;10.00;74.50;;;;;;5004839;28;20231;-83
2022/04/13 06:52:10;;;;;;;8.70;5.60;;;10.20;75.00;;;;;;5009256;28;20237;-86
2022/04/13 06:54:36;;;;;;;7.53;5.53;;;10.30;74.40;;;;;;4990218;28;20253;-84
2022/04/13 06:57:04;;;;;;;8.90;6.20;;;10.50;73.80;;;;;;5012706;28;20228;-84
2022/04/13 06:59:30;;;;;;;9.50;6.00;;;10.60;73.60;;;;;;5010278;28;20247;-84
2022/04/13 07:01:57;;;;;;;10.83;6.23;;;10.80;73.40;;;;;;4993600;28;20229;-84
2022/04/13 07:04:24;;;;;;;8.63;6.67;;;11.00;73.00;;;;;;5006088;28;20271;-83
2022/04/13 07:06:52;;;;;;;10.03;6.23;;;11.10;72.30;;;;;;4987702;28;20225;-83
2022/04/13 07:09:19;;;;;;;9.67;6.20;;;11.30;72.00;;;;;;4988658;28;20227;-82
2022/04/13 07:11:46;;;;;;;9.20;6.90;;;11.40;72.20;;;;;;5006711;28;20232;-82
2022/04/13 07:14:13;;;;;;;9.93;5.83;;;11.50;71.90;;;;;;5001152;28;20227;-82
2022/04/13 07:16:39;;;;;;;9.20;6.13;;;11.70;71.60;;;;;;4989381;28;20779;-83
2022/04/13 07:19:06;;;;;;;11.50;6.17;;;11.90;71.30;;;;;;5002484;28;20323;-82
2022/04/13 07:21:34;;;;;;;10.40;6.50;;;12.00;70.20;;;;;;5002976;28;20236;-82
2022/04/13 07:24:02;;;;;;;10.33;6.87;;;12.20;69.30;;;;;;4997510;28;20274;-82
2022/04/13 07:26:29;;;;;;;7.23;5.77;;;12.20;69.40;;;;;;4980002;28;20228;-82
2022/04/13 07:28:55;;;;;;;9.50;6.00;;;12.30;69.70;;;;;;5004760;28;20227;-82
2022/04/13 07:31:22;;;;;;;9.07;6.63;;;12.40;69.90;;;;;;5002727;28;20923;-82
2022/04/13 07:33:48;;;;;;;12.90;6.40;;;12.50;69.40;;;;;;5005861;28;20241;-81
2022/04/13 07:36:15;;;;;;;8.63;6.27;;;12.60;68.90;;;;;;4988633;28;20228;-81
2022/04/13 07:38:42;;;;;;;9.70;6.40;;;12.70;68.70;;;;;;5000863;28;20320;-85
2022/04/13 07:41:10;;;;;;;9.57;6.43;;;12.70;68.00;;;;;;5001015;28;20238;-82
2022/04/13 07:43:37;;;;;;;9.37;6.53;;;12.90;68.50;;;;;;5005257;28;20238;-84
2022/04/13 07:46:04;;;;;;;10.30;7.07;;;13.10;69.60;;;;;;4982046;28;20228;-83
2022/04/13 07:48:31;;;;;;;10.87;6.50;;;13.40;69.20;;;;;;5003219;28;20736;-82
2022/04/13 07:50:58;;;;;;;10.03;6.90;;;13.70;69.40;;;;;;5002212;28;20232;-83
2022/04/13 07:53:24;;;;;;;9.23;6.60;;;14.10;69.30;;;;;;4990982;28;20412;-80
2022/04/13 07:55:51;;;;;;;8.67;6.43;;;14.60;67.60;;;;;;5004818;28;20240;-78
2022/04/13 07:58:19;;;;;;;8.90;6.53;;;15.00;65.20;;;;;;5004460;28;20320;-79
2022/04/13 08:00:46;;;;;;;8.23;6.63;;;15.40;64.40;;;;;;5002115;28;20297;-80
2022/04/13 08:03:13;;;;;;;9.60;6.63;;;15.80;64.60;;;;;;4974145;28;20233;-79
2022/04/13 08:05:40;;;;;;;10.00;7.27;;;16.20;64.10;;;;;;5005106;28;20240;-79
2022/04/13 08:08:07;;;;;;;8.80;6.40;;;16.50;62.80;;;;;;5005299;28;20210;-77
2022/04/13 08:10:34;;;;;;;8.70;6.60;;;16.80;61.60;;;;;;4977521;28;20233;-81
2022/04/13 08:13:01;;;;;;;8.80;6.93;;;17.10;62.30;;;;;;4991392;28;20229;-80
2022/04/13 08:15:30;;;;;;;11.40;6.78;;;17.50;61.10;;;;;;4978544;28;20239;-82
2022/04/13 08:17:57;;;;;;;9.43;6.82;;;17.80;60.50;;;;;;5000126;28;20227;-82
2022/04/13 08:20:24;;;;;;;8.80;6.82;;;18.10;59.00;;;;;;4998237;28;20233;-82
2022/04/13 08:22:51;;;;;;;8.80;6.28;;;18.40;59.10;;;;;;4974852;28;20240;-82
2022/04/13 08:25:19;;;;;;;9.90;6.70;;;18.60;59.10;;;;;;4983138;28;20244;-82
2022/04/13 08:27:46;;;;;;;9.85;6.07;;;18.90;59.10;;;;;;4999696;28;20226;-82
2022/04/13 08:30:14;;;;;;;8.32;6.03;;;19.20;58.90;;;;;;4995095;28;20700;-82
2022/04/13 08:32:42;;;;;;;7.93;6.88;;;19.50;58.30;;;;;;4982487;28;20748;-83
2022/04/13 08:35:11;;;;;;;9.38;6.45;;;19.70;56.90;;;;;;4997339;28;20232;-82
2022/04/13 08:37:38;;;;;;;10.82;7.20;;;20.00;56.40;;;;;;4974646;28;20328;-82
2022/04/13 08:40:05;;;;;;;8.75;5.80;;;20.10;55.70;;;;;;4999332;28;20233;-82
2022/04/13 08:42:40;;;;;;;8.38;6.45;;;20.20;55.90;;;;;;4983302;28;20229;-82
2022/04/13 08:45:15;;;;;;;9.13;6.15;;;20.30;55.40;;;;;;4998221;28;20244;-83
2022/04/13 08:47:45;;;;;;;10.15;6.50;;;20.40;54.70;;;;;;4999096;28;20229;-82
2022/04/13 08:50:13;;;;;;;9.02;6.90;;;20.50;55.90;;;;;;4996451;28;20233;-82
2022/04/13 08:52:41;;;;;;;9.45;6.95;;;20.80;55.80;;;;;;4979913;28;20496;-82
2022/04/13 08:55:11;;;;;;;6.45;5.65;;;21.00;54.90;;;;;;4976891;28;20316;-82
2022/04/13 08:57:41;;;;;;;10.55;6.47;;;21.20;54.90;;;;;;4982667;28;20320;-81
2022/04/13 09:00:10;;;;;;;10.35;6.78;;;21.50;55.20;;;;;;5000033;28;20237;-81
2022/04/13 09:03:16;;;;;;;10.25;6.80;;;21.60;54.40;;;;;;4999388;28;20259;-82
2022/04/13 09:05:47;;;;;;;9.00;6.88;;;21.80;52.60;;;;;;4993165;28;20233;-82
2022/04/13 09:08:18;;;;;;;10.65;6.70;;;21.90;54.00;;;;;;4997331;28;20667;-81
2022/04/13 09:10:47;;;;;;;11.57;7.53;;;22.00;53.20;;;;;;4997641;28;20217;-82
2022/04/13 09:13:14;;;;;;;9.02;6.85;;;22.10;53.40;;;;;;4994846;28;20253;-83
2022/04/13 09:15:42;;;;;;;10.80;7.25;;;22.20;53.60;;;;;;4995045;28;20757;-86
2022/04/13 09:18:12;;;;;;;10.23;6.57;;;22.30;52.80;;;;;;4981525;28;20260;-82
2022/04/13 09:20:40;;;;;;;8.95;6.75;;;22.50;52.80;;;;;;4981177;28;20221;-82
2022/04/13 09:23:07;;;;;;;10.95;6.70;;;22.50;53.20;;;;;;4983234;28;21024;-82
2022/04/13 09:25:36;;;;;;;9.30;6.57;;;22.70;53.40;;;;;;5004247;28;20244;-82
2022/04/13 09:28:04;;;;;;;8.45;7.20;;;22.80;52.50;;;;;;4990708;28;20271;-82
2022/04/13 09:30:33;;;;;;;11.05;6.90;;;23.00;53.00;;;;;;4990787;28;20234;-82
2022/04/13 09:33:01;;;;;;;10.27;6.95;;;23.10;52.50;;;;;;5009195;28;20770;-82
2022/04/13 09:35:31;;;;;;;11.65;6.80;;;23.20;52.10;;;;;;4991278;28;20769;-82
2022/04/13 09:38:01;;;;;;;10.32;6.57;;;23.20;52.90;;;;;;5015643;28;20238;-83
2022/04/13 09:40:34;;;;;;;9.10;7.18;;;23.20;52.00;;;;;;5006438;28;20643;-82
2022/04/13 09:43:05;;;;;;;10.63;7.18;;;23.20;51.80;;;;;;4990866;28;20236;-82
2022/04/13 09:45:34;;;;;;;9.00;7.22;;;23.20;51.30;;;;;;5004685;28;20234;-83
2022/04/13 09:48:05;;;;;;;10.77;6.88;;;23.10;52.10;;;;;;5007941;28;20225;-82
2022/04/13 09:50:33;;;;;;;10.07;6.68;;;23.00;51.80;;;;;;4986014;28;20989;-81
2022/04/13 09:53:03;;;;;;;10.70;7.57;;;22.90;51.80;;;;;;5005522;28;20308;-81
2022/04/13 09:55:30;;;;;;;9.45;7.10;;;22.80;52.00;;;;;;4986518;28;20805;-81
2022/04/13 09:58:08;;;;;;;8.63;6.60;;;22.70;52.80;;;;;;5004419;28;20225;-81
2022/04/13 10:00:35;;;;;;;10.35;7.00;;;22.70;52.80;;;;;;5004127;28;20229;-81
2022/04/13 10:03:10;;;;;;;8.93;7.00;;;22.70;52.90;;;;;;4987530;28;20228;-81
2022/04/13 10:05:41;;;;;;;10.30;7.63;;;22.80;52.20;;;;;;5005895;28;20225;-81
2022/04/13 10:08:10;;;;;;;9.00;6.95;;;22.80;52.10;;;;;;4988706;28;20304;-81
2022/04/13 10:10:40;;;;;;;12.57;7.20;;;22.90;52.50;;;;;;4985024;28;20229;-82
2022/04/13 10:13:07;;;;;;;10.18;7.00;;;23.00;53.00;;;;;;4985784;28;20235;-81
2022/04/13 10:15:34;;;;;;;9.40;7.20;;;23.10;53.50;;;;;;4999530;28;20221;-81
2022/04/13 10:18:04;;;;;;;11.13;7.75;;;23.20;53.30;;;;;;5000636;28;20229;-82
2022/04/13 10:20:46;;;;;;;11.10;7.97;;;23.40;53.10;;;;;;5002265;28;20738;-82
2022/04/13 10:23:13;;;;;;;11.98;8.20;;;23.50;52.20;;;;;;4999759;28;20222;-83
2022/04/13 10:25:41;;;;;;;11.32;8.25;;;23.60;52.20;;;;;;4984885;28;20227;-83
2022/04/13 10:28:10;;;;;;;9.52;7.40;;;23.70;51.80;;;;;;5006493;28;20221;-82
2022/04/13 10:30:38;;;;;;;9.63;7.72;;;23.60;51.90;;;;;;4985903;28;20249;-82
2022/04/13 10:33:06;;;;;;;9.45;7.85;;;23.50;51.90;;;;;;5005831;28;20316;-82
2022/04/13 10:35:37;;;;;;;12.90;8.00;;;23.50;52.00;;;;;;5004949;28;20221;-83
2022/04/13 10:38:05;;;;;;;11.43;8.07;;;23.40;52.40;;;;;;4992000;28;20275;-82
2022/04/13 10:40:34;;;;;;;9.00;7.15;;;23.40;51.90;;;;;;4988380;28;20236;-82
2022/04/13 10:43:05;;;;;;;10.68;7.60;;;23.30;52.30;;;;;;4986947;28;20243;-83
2022/04/13 10:45:34;;;;;;;13.18;7.88;;;23.30;52.10;;;;;;5003766;28;20264;-82
2022/04/13 10:48:04;;;;;;;11.43;8.13;;;23.20;52.20;;;;;;5007166;28;20625;-83
2022/04/13 10:50:42;;;;;;;10.82;7.57;;;23.20;52.70;;;;;;4984728;28;20444;-83
2022/04/13 10:53:24;;;;;;;13.18;8.85;;;23.10;53.00;;;;;;5000060;28;20231;-83
2022/04/13 10:55:59;;;;;;;15.15;8.07;;;23.10;52.70;;;;;;4989461;28;20226;-82
2022/04/13 10:58:39;;;;;;;12.68;8.18;;;23.00;52.80;;;;;;5008594;28;20701;-83
2022/04/13 11:01:11;;;;;;;10.45;8.13;;;23.10;53.30;;;;;;5001507;28;20225;-82
2022/04/13 11:03:39;;;;;;;11.05;8.02;;;23.10;53.20;;;;;;5006155;28;20314;-83
2022/04/13 11:06:07;;;;;;;13.65;8.90;;;23.20;53.30;;;;;;4989679;28;20257;-82
2022/04/13 11:08:46;;;;;;;13.13;8.13;;;23.20;53.20;;;;;;5005822;28;20691;-82
2022/04/13 11:11:18;;;;;;;12.48;8.18;;;23.30;53.20;;;;;;4989906;28;20228;-82
2022/04/13 11:13:47;;;;;;;12.98;8.52;;;23.40;52.90;;;;;;5006328;28;20332;-82
2022/04/13 11:16:16;;;;;;;12.43;8.48;;;23.50;52.80;;;;;;4988384;28;20317;-83
2022/04/13 11:18:43;;;;;;;11.63;7.97;;;23.70;53.10;;;;;;5008074;28;20229;-83
2022/04/13 11:21:11;;;;;;;13.15;8.75;;;23.80;53.00;;;;;;5006470;28;20324;-83
2022/04/13 11:23:50;;;;;;;12.88;8.90;;;23.90;52.70;;;;;;5007544;28;20229;-83
2022/04/13 11:26:25;;;;;;;12.20;8.13;;;24.10;52.60;;;;;;5006727;28;20352;-83
2022/04/13 11:29:17;;;;;;;13.15;8.50;;;24.20;52.80;;;;;;5006600;28;20302;-82
2022/04/13 11:32:09;;;;;;;13.30;8.80;;;24.40;52.60;;;;;;4988148;28;20338;-83
2022/04/13 11:34:38;;;;;;;13.60;8.50;;;24.80;52.10;;;;;;4979569;28;20309;-82
2022/04/13 11:37:07;;;;;;;13.35;8.80;;;25.10;52.70;;;;;;4996914;28;20221;-83
2022/04/13 11:39:51;;;;;;;15.07;8.25;;;25.40;51.80;;;;;;5006936;28;20276;-83
2022/04/13 11:43:02;;;;;;;11.77;8.60;;;25.60;51.20;;;;;;5005358;28;20221;-82
2022/04/13 11:45:29;;;;;;;12.07;8.45;;;25.70;50.90;;;;;;5002487;28;20237;-83
2022/04/13 11:47:58;;;;;;;14.57;9.35;;;25.80;50.30;;;;;;5002639;28;20230;-83
2022/04/13 11:50:27;;;;;;;13.85;8.90;;;25.70;50.30;;;;;;4986003;28;20239;-83
2022/04/13 11:52:55;;;;;;;12.57;8.50;;;25.70;50.90;;;;;;4989206;28;20227;-83
2022/04/13 11:55:26;;;;;;;12.80;8.60;;;25.70;51.30;;;;;;5006586;28;20229;-83
2022/04/13 11:58:23;;;;;;;14.45;8.85;;;25.80;51.10;;;;;;5006752;28;20229;-83
2022/04/13 12:01:11;;;;;;;13.70;8.68;;;25.90;51.00;;;;;;4997848;28;20226;-83
2022/04/13 12:03:39;;;;;;;15.23;10.07;;;26.10;51.00;;;;;;4987727;28;20855;-82
2022/04/13 12:06:08;;;;;;;13.90;9.15;;;26.20;50.50;;;;;;5006104;28;20329;-82
2022/04/13 12:08:36;;;;;;;15.70;9.60;;;26.30;50.70;;;;;;5006081;28;20649;-83
2022/04/13 12:11:06;;;;;;;16.55;10.07;;;26.40;50.70;;;;;;4985893;28;20744;-83
2022/04/13 12:13:46;;;;;;;15.40;9.88;;;26.50;50.40;;;;;;5005755;28;20229;-83
2022/04/13 12:16:18;;;;;;;18.20;10.10;;;26.60;50.50;;;;;;4991877;28;20244;-83
2022/04/13 12:18:44;;;;;;;15.60;9.50;;;26.70;50.30;;;;;;4987711;28;20234;-83
2022/04/13 12:21:13;;;;;;;16.30;10.23;;;26.80;50.40;;;;;;5005963;28;20235;-83
2022/04/13 12:23:42;;;;;;;16.17;9.80;;;26.90;50.00;;;;;;4987770;28;20225;-83
2022/04/13 12:26:10;;;;;;;15.45;9.75;;;26.90;49.60;;;;;;5006813;28;20526;-83
2022/04/13 12:28:38;;;;;;;17.58;10.20;;;26.90;49.60;;;;;;4988757;28;20263;-83
2022/04/13 12:31:07;;;;;;;15.77;9.63;;;26.90;49.40;;;;;;5003103;28;20485;-83
2022/04/13 12:33:34;;;;;;;17.38;10.48;;;26.80;49.60;;;;;;5005652;28;20225;-83
2022/04/13 12:36:03;;;;;;;16.85;10.20;;;26.80;49.80;;;;;;4978915;28;20257;-83
2022/04/13 12:38:31;;;;;;;18.70;9.82;;;26.70;50.00;;;;;;4988723;28;20316;-83
2022/04/13 12:41:07;;;;;;;17.80;10.27;;;26.70;50.00;;;;;;4988555;28;20429;-83
2022/04/13 12:43:37;;;;;;;22.23;10.52;;;26.70;49.60;;;;;;4988039;28;20276;-82
2022/04/13 12:46:18;;;;;;;17.58;10.15;;;26.80;50.30;;;;;;4989327;28;20233;-83
2022/04/13 12:48:47;;;;;;;16.90;9.85;;;26.80;50.00;;;;;;4987990;28;20251;-83
2022/04/13 12:51:15;;;;;;;22.00;10.60;;;26.90;50.00;;;;;;4999511;28;20232;-83
2022/04/13 12:53:54;;;;;;;19.30;10.85;;;26.90;50.00;;;;;;5006685;28;20300;-83
2022/04/13 12:56:24;;;;;;;15.73;8.95;;;27.00;49.70;;;;;;5007177;28;20817;-82